createdAt,value
2022-10-12T00:01:35.562Z,101351.69
2022-10-12T00:06:40.273Z,101356.63
2022-10-12T00:11:59.697Z,101359.63
2022-10-12T00:17:15.342Z,101357.22
2022-10-12T00:22:29.513Z,101360.19
2022-10-12T00:27:47.652Z,101357.03
2022-10-12T00:33:00.144Z,101359.16
2022-10-12T00:38:06.662Z,101350.72
2022-10-12T00:43:30.979Z,101354.25
2022-10-12T00:48:45.912Z,101359.00
2022-10-12T00:54:00.858Z,101348.72
2022-10-12T00:59:31.152Z,101356.00
2022-10-12T01:04:49.238Z,101358.97
2022-10-12T01:10:02.585Z,101352.28
2022-10-12T01:15:17.942Z,101348.16
2022-10-12T01:21:03.368Z,101347.41
2022-10-12T01:26:58.390Z,101343.31
2022-10-12T01:32:16.302Z,101350.47
2022-10-12T01:37:53.826Z,101356.72
2022-10-12T01:43:36.934Z,101353.25
2022-10-12T01:48:53.522Z,101347.38
2022-10-12T01:54:24.422Z,101349.97
2022-10-12T01:59:58.516Z,101344.94
2022-10-12T02:05:39.836Z,101346.00
2022-10-12T02:11:00.192Z,101347.19
2022-10-12T02:16:23.512Z,101350.06
2022-10-12T02:21:44.858Z,101351.81
2022-10-12T02:26:57.219Z,101354.72
2022-10-12T02:32:09.920Z,101348.06
2022-10-12T02:37:27.755Z,101343.03
2022-10-12T02:43:08.761Z,101339.78
2022-10-12T02:48:12.785Z,101332.41
2022-10-12T02:53:33.856Z,101326.50
2022-10-12T02:58:42.138Z,101323.25
2022-10-12T03:04:01.123Z,101323.41
2022-10-12T03:09:14.664Z,101328.72
2022-10-12T03:14:23.927Z,101314.22
2022-10-12T03:19:38.192Z,101316.06
2022-10-12T03:30:19.680Z,101315.69
2022-10-12T03:35:32.967Z,101314.88
2022-10-12T03:40:44.250Z,101302.03
2022-10-12T03:45:54.524Z,101313.38
2022-10-12T03:51:09.932Z,101298.75
2022-10-12T03:56:24.966Z,101307.50
2022-10-12T04:01:32.563Z,101312.69
2022-10-12T04:06:42.360Z,101311.09
2022-10-12T04:11:58.045Z,101312.03
2022-10-12T04:17:09.723Z,101312.94
2022-10-12T04:22:14.053Z,101309.59
2022-10-12T04:27:25.694Z,101319.09
2022-10-12T04:32:33.671Z,101308.66
2022-10-12T04:43:14.104Z,101313.19
2022-10-12T04:48:32.884Z,101311.53
2022-10-12T04:59:28.542Z,101309.34
2022-10-12T05:04:42.950Z,101313.66
2022-10-12T05:10:12.855Z,101306.00
2022-10-12T05:15:33.463Z,101307.66
2022-10-12T05:20:38.779Z,101315.66
2022-10-12T05:25:49.467Z,101309.69
2022-10-12T05:31:19.336Z,101320.22
2022-10-12T05:36:29.168Z,101316.06
2022-10-12T05:41:44.464Z,101323.13
2022-10-12T05:46:51.363Z,101317.94
2022-10-12T05:51:57.954Z,101309.94
2022-10-12T05:57:13.573Z,101321.09
2022-10-12T06:02:24.885Z,101317.34
2022-10-12T06:07:54.883Z,101317.94
2022-10-12T06:13:05.807Z,101317.59
2022-10-12T06:18:45.781Z,101317.16
2022-10-12T06:24:06.221Z,101309.84
2022-10-12T06:29:17.086Z,101325.81
2022-10-12T06:34:42.888Z,101325.19
2022-10-12T06:40:11.299Z,101329.72
2022-10-12T06:45:22.003Z,101323.69
2022-10-12T06:50:43.781Z,101326.34
2022-10-12T06:55:54.747Z,101327.50
2022-10-12T07:06:42.798Z,101333.13
2022-10-12T07:12:13.113Z,101328.44
2022-10-12T07:17:37.396Z,101325.50
2022-10-12T07:22:52.430Z,101325.81
2022-10-12T07:27:56.444Z,101327.19
2022-10-12T07:33:02.940Z,101327.97
2022-10-12T07:38:17.969Z,101333.81
2022-10-12T07:43:38.121Z,101332.69
2022-10-12T07:48:50.082Z,101333.19
2022-10-12T07:54:02.539Z,101329.44
2022-10-12T07:59:08.806Z,101335.16
2022-10-12T08:04:41.230Z,101317.81
2022-10-12T08:09:53.130Z,101319.44
2022-10-12T08:14:59.809Z,101315.00
2022-10-12T08:20:07.021Z,101311.72
2022-10-12T08:25:21.680Z,101314.13
2022-10-12T08:30:44.654Z,101308.53
2022-10-12T08:36:09.080Z,101309.38
2022-10-12T08:41:32.462Z,101310.16
2022-10-12T08:46:53.471Z,101307.78
2022-10-12T08:52:11.467Z,101302.56
2022-10-12T08:57:21.600Z,101295.84
2022-10-12T09:02:56.401Z,101289.84
2022-10-12T09:08:07.367Z,101293.03
2022-10-12T09:13:23.786Z,101284.78
2022-10-12T09:18:43.592Z,101277.56
2022-10-12T09:23:48.249Z,101285.91
2022-10-12T09:29:00.444Z,101272.75
2022-10-12T09:34:08.582Z,101282.06
2022-10-12T09:39:32.728Z,101264.84
2022-10-12T09:44:44.826Z,101265.41
2022-10-12T09:49:55.385Z,101264.25
2022-10-12T09:55:07.774Z,101262.06
2022-10-12T10:00:36.490Z,101263.78
2022-10-12T10:05:43.611Z,101264.44
2022-10-12T10:10:58.179Z,101256.28
2022-10-12T10:16:16.520Z,101249.94
2022-10-12T10:21:36.443Z,101259.81
2022-10-12T10:27:00.843Z,101253.97
2022-10-12T10:32:45.822Z,101249.38
2022-10-12T10:38:02.776Z,101236.78
2022-10-12T10:43:25.624Z,101239.00
2022-10-12T10:48:58.130Z,101237.44
2022-10-12T10:54:18.653Z,101238.28
2022-10-12T10:59:36.198Z,101232.00
2022-10-12T11:04:54.761Z,101226.28
2022-10-12T11:10:02.186Z,101234.63
2022-10-12T11:15:23.618Z,101228.19
2022-10-12T11:20:41.515Z,101219.13
2022-10-12T11:26:02.860Z,101211.88
2022-10-12T11:31:17.462Z,101205.41
2022-10-12T11:36:33.595Z,101208.31
2022-10-12T11:42:09.823Z,101195.34
2022-10-12T11:47:36.393Z,101188.69
2022-10-12T11:52:55.340Z,101185.38
2022-10-12T11:58:12.544Z,101186.28
2022-10-12T12:03:29.497Z,101174.41
2022-10-12T12:09:14.140Z,101174.41
2022-10-12T12:15:16.602Z,101164.63
2022-10-12T12:20:58.710Z,101154.94
2022-10-12T12:26:20.836Z,101146.41
2022-10-12T12:31:38.868Z,101142.31
2022-10-12T12:36:48.429Z,101139.50
2022-10-12T12:42:12.432Z,101130.16
2022-10-12T12:52:52.198Z,101113.16
2022-10-12T12:58:20.420Z,101112.03
2022-10-12T13:04:00.164Z,101105.13
2022-10-12T13:09:25.568Z,101103.81
2022-10-12T13:15:08.742Z,101096.19
2022-10-12T13:20:43.220Z,101094.69
2022-10-12T13:26:06.448Z,101087.91
2022-10-12T13:31:24.359Z,101089.09
2022-10-12T13:36:33.008Z,101077.53
2022-10-12T13:41:43.460Z,101070.41
2022-10-12T13:47:10.111Z,101072.06
2022-10-12T13:52:30.939Z,101066.78
2022-10-12T13:57:50.758Z,101065.78
2022-10-12T14:03:03.477Z,101051.06
2022-10-12T14:08:17.409Z,101052.66
2022-10-12T14:13:32.214Z,101042.72
2022-10-12T14:18:41.538Z,101052.09
2022-10-12T14:23:53.392Z,101051.72
2022-10-12T14:29:02.463Z,101043.41
2022-10-12T14:34:37.294Z,101040.75
2022-10-12T14:39:44.145Z,101038.44
2022-10-12T14:44:50.673Z,101032.63
2022-10-12T14:50:01.631Z,101025.69
2022-10-12T14:55:13.644Z,101020.84
2022-10-12T15:00:25.857Z,101019.66
2022-10-12T15:05:44.845Z,101019.13
2022-10-12T15:11:09.507Z,101019.44
2022-10-12T15:16:29.474Z,101021.13
2022-10-12T15:21:42.536Z,101009.88
2022-10-12T15:27:01.405Z,101014.63
2022-10-12T15:32:08.765Z,101013.44
2022-10-12T15:37:31.996Z,101009.06
2022-10-12T15:42:39.504Z,101007.47
2022-10-12T15:47:53.930Z,101006.41
2022-10-12T15:53:27.774Z,101006.34
2022-10-12T15:58:41.159Z,101005.19
2022-10-12T16:03:53.563Z,100995.28
2022-10-12T16:09:05.497Z,100999.22
2022-10-12T16:14:14.546Z,100999.00
2022-10-12T16:19:19.591Z,100994.06
2022-10-12T16:24:32.258Z,100998.97
2022-10-12T16:29:41.261Z,101002.88
2022-10-12T16:34:54.659Z,100996.44
2022-10-12T16:40:05.637Z,100992.41
2022-10-12T16:45:15.986Z,100999.81
2022-10-12T16:50:45.574Z,100995.66
2022-10-12T16:55:54.778Z,101002.28
2022-10-12T17:01:14.602Z,101002.41
2022-10-12T17:06:21.770Z,100996.44
2022-10-12T17:11:33.164Z,100995.75
2022-10-12T17:17:02.791Z,101005.56
2022-10-12T17:22:25.116Z,101003.22
2022-10-12T17:27:43.426Z,100990.88
2022-10-12T17:32:59.646Z,100994.34
2022-10-12T17:38:19.018Z,100986.47
2022-10-12T17:43:45.888Z,100983.38
2022-10-12T17:48:53.900Z,100976.47
2022-10-12T17:54:02.880Z,100979.38
2022-10-12T18:04:49.614Z,100978.53
2022-10-12T18:10:00.576Z,100985.03
2022-10-12T18:15:31.343Z,100976.72
2022-10-12T18:20:46.348Z,100974.63
2022-10-12T18:25:56.140Z,100974.19
2022-10-12T18:31:06.583Z,100965.88
2022-10-12T18:36:19.580Z,100971.00
2022-10-12T18:41:29.598Z,100965.41
2022-10-12T18:46:47.450Z,100964.81
2022-10-12T18:52:08.340Z,100978.34
2022-10-12T18:57:18.678Z,100973.53
2022-10-12T19:02:25.818Z,100973.91
2022-10-12T19:07:36.741Z,100976.09
2022-10-12T19:12:45.650Z,100973.88
2022-10-12T19:17:59.340Z,100966.50
2022-10-12T19:23:07.607Z,100973.94
2022-10-12T19:28:12.187Z,100971.69
2022-10-12T19:33:20.744Z,100969.34
2022-10-12T19:38:30.000Z,100960.63
2022-10-12T19:43:43.379Z,100959.78
2022-10-12T19:48:56.530Z,100963.28
2022-10-12T19:54:09.546Z,100940.69
2022-10-12T20:06:18.014Z,100922.16
2022-10-12T20:11:26.770Z,100925.84
2022-10-12T20:16:35.765Z,100930.53
2022-10-12T20:21:42.454Z,100926.63
2022-10-12T20:26:47.353Z,100929.66
2022-10-12T20:32:05.006Z,100922.16
2022-10-12T20:37:22.186Z,100924.09
2022-10-12T20:42:30.575Z,100918.97
2022-10-12T20:47:37.861Z,100912.03
2022-10-12T20:52:48.488Z,100915.91
2022-10-12T20:57:56.998Z,100906.34
2022-10-12T21:03:03.393Z,100910.22
2022-10-12T21:08:16.065Z,100912.94
2022-10-12T21:13:28.749Z,100910.84
2022-10-12T21:18:38.511Z,100910.38
2022-10-12T21:23:48.811Z,100904.59
2022-10-12T21:29:03.846Z,100903.41
2022-10-12T21:34:26.733Z,100914.28
2022-10-12T21:39:44.595Z,100915.88
2022-10-12T21:44:53.530Z,100917.31
2022-10-12T21:49:59.746Z,100917.13
2022-10-12T21:55:07.181Z,100922.03
2022-10-12T22:00:14.674Z,100914.09
2022-10-12T22:05:23.210Z,100921.63
2022-10-12T22:10:40.211Z,100914.00
2022-10-12T22:21:40.203Z,100903.91
2022-10-12T22:27:13.396Z,100899.50
2022-10-12T22:32:43.922Z,100894.53
2022-10-12T22:37:51.087Z,100897.16
2022-10-12T22:43:18.107Z,100897.50
2022-10-12T22:48:25.306Z,100895.97
2022-10-12T22:53:32.607Z,100896.22
2022-10-12T22:58:46.408Z,100893.59
2022-10-12T23:03:50.801Z,100877.25
2022-10-12T23:09:00.459Z,100893.25
2022-10-12T23:14:07.472Z,100887.28
2022-10-12T23:19:18.673Z,100886.44
2022-10-12T23:24:23.305Z,100891.13
2022-10-12T23:29:30.248Z,100884.44
2022-10-12T23:34:38.006Z,100895.56
2022-10-12T23:39:45.423Z,100889.56
2022-10-12T23:45:06.371Z,100888.16
2022-10-12T23:50:12.222Z,100891.13
2022-10-12T23:55:20.088Z,100886.84
